Time;durP1;ratioP1;P1;durP2;ratioP2;P2;SDS_P1;SDS_P2;PMS_P1;PMS_P2;Temp;Humidity;BMP_temperature;BMP_pressure;BME280_temperature;BME280_humidity;BME280_pressure;Samples;Min_cycle;Max_cycle;Signal;HPM_P1;HPM_P2
2022/09/07 00:01:09;;;;;;;0.00;0.00;;;18.00;99.90;226.50;231333.00;;;;5031919;28;20237;-71
2022/09/07 00:03:39;;;;;;;0.00;0.00;;;18.00;99.90;226.50;231333.00;;;;5031390;28;20199;-71
2022/09/07 00:06:13;;;;;;;0.00;0.00;;;18.00;99.90;226.50;231333.00;;;;5031015;28;20628;-72
2022/09/07 00:08:45;;;;;;;0.00;0.00;;;17.90;99.90;226.50;231333.00;;;;5028020;28;20231;-72
2022/09/07 00:11:19;;;;;;;0.00;0.00;;;18.00;99.90;226.50;231333.00;;;;5031129;28;20694;-73
2022/09/07 00:13:52;;;;;;;0.00;0.00;;;18.00;99.90;226.50;231333.00;;;;5031101;28;20195;-71
2022/09/07 00:16:25;;;;;;;0.00;0.00;;;17.90;99.90;226.50;231333.00;;;;5029795;28;20210;-72
2022/09/07 00:18:58;;;;;;;0.00;0.00;;;17.90;99.90;226.50;231333.00;;;;5030134;28;20571;-71
2022/09/07 00:21:29;;;;;;;0.10;0.10;;;17.80;99.90;226.50;231333.00;;;;5030694;28;20211;-72
2022/09/07 00:24:01;;;;;;;0.00;0.00;;;17.80;99.90;226.50;231333.00;;;;5030779;28;20210;-72
2022/09/07 00:26:33;;;;;;;0.00;0.00;;;17.80;99.90;226.50;231333.00;;;;5028806;28;20203;-72
2022/09/07 00:29:06;;;;;;;0.00;0.00;;;17.80;99.90;226.50;231333.00;;;;5031296;28;20621;-72
2022/09/07 00:31:37;;;;;;;0.00;0.00;;;17.80;99.90;226.50;231333.00;;;;5031822;28;20205;-72
2022/09/07 00:34:08;;;;;;;0.00;0.00;;;17.80;99.90;226.50;231333.00;;;;5030936;28;20198;-71
2022/09/07 00:36:38;;;;;;;0.00;0.00;;;17.80;99.90;226.50;231333.00;;;;5030871;28;20226;-73
2022/09/07 00:39:10;;;;;;;0.00;0.00;;;17.80;99.90;226.50;231333.00;;;;5031476;28;20717;-72
2022/09/07 00:41:41;;;;;;;0.00;0.00;;;17.70;99.90;226.50;231333.00;;;;5030994;28;20225;-72
2022/09/07 00:45:08;;;;;;;0.00;0.00;;;17.80;99.90;226.50;231333.00;;;;5033240;28;20195;-71
2022/09/07 00:47:52;;;;;;;0.00;0.00;;;17.80;99.90;226.50;231333.00;;;;5034120;28;20205;-71
2022/09/07 00:50:29;;;;;;;0.00;0.00;;;17.80;99.90;226.50;231333.00;;;;5032867;28;20230;-71
2022/09/07 00:53:06;;;;;;;0.00;0.00;;;17.80;99.90;226.50;231333.00;;;;5026464;28;20570;-71
2022/09/07 00:55:42;;;;;;;0.00;0.00;;;17.80;99.90;226.50;231333.00;;;;5030826;28;20555;-71
2022/09/07 00:58:14;;;;;;;0.00;0.00;;;17.80;99.90;226.50;231333.00;;;;5027579;28;20191;-72
2022/09/07 01:00:48;;;;;;;0.00;0.00;;;17.80;99.90;226.50;231333.00;;;;5033964;28;20225;-72
2022/09/07 01:03:24;;;;;;;0.00;0.00;;;17.80;99.90;226.50;231333.00;;;;5033704;28;20226;-72
2022/09/07 01:06:02;;;;;;;0.10;0.10;;;17.80;99.90;226.50;231333.00;;;;5033691;28;20563;-73
2022/09/07 01:08:34;;;;;;;0.05;0.05;;;17.70;99.90;226.50;231333.00;;;;5031928;28;20210;-73
2022/09/07 01:11:07;;;;;;;0.00;0.00;;;17.70;99.90;226.50;231333.00;;;;5025403;28;20227;-73
2022/09/07 01:13:39;;;;;;;0.00;0.00;;;17.70;99.90;226.50;231333.00;;;;5033561;28;20195;-73
2022/09/07 01:16:26;;;;;;;0.00;0.00;;;17.70;99.90;226.50;231333.00;;;;5025303;28;20191;-73
2022/09/07 01:19:29;;;;;;;0.00;0.00;;;17.60;99.90;226.50;231333.00;;;;5024375;28;20214;-73
2022/09/07 01:22:28;;;;;;;0.00;0.00;;;17.60;99.90;226.50;231333.00;;;;5025035;28;20210;-73
2022/09/07 01:25:10;;;;;;;0.00;0.00;;;17.60;99.90;226.50;231333.00;;;;5033016;28;20191;-72
2022/09/07 01:28:09;;;;;;;0.00;0.00;;;17.50;99.90;226.50;231333.00;;;;5033182;28;20194;-74
2022/09/07 01:30:46;;;;;;;0.00;0.00;;;17.60;99.90;226.50;231333.00;;;;5030002;28;20234;-72
2022/09/07 01:33:42;;;;;;;0.00;0.00;;;17.60;99.90;226.50;231333.00;;;;5032867;28;20198;-73
2022/09/07 01:36:33;;;;;;;0.00;0.00;;;17.70;99.90;226.50;231333.00;;;;5032175;28;20654;-73
2022/09/07 01:39:06;;;;;;;0.00;0.00;;;17.70;99.90;226.50;231333.00;;;;5027249;28;20223;-74
2022/09/07 01:41:47;;;;;;;0.00;0.00;;;17.60;99.90;226.50;231333.00;;;;5032840;28;20223;-73
2022/09/07 01:44:24;;;;;;;0.00;0.00;;;17.60;99.90;226.50;231333.00;;;;5033540;28;20191;-73
2022/09/07 01:47:04;;;;;;;0.00;0.00;;;17.50;99.90;226.50;231333.00;;;;5032127;28;20211;-74
2022/09/07 01:49:42;;;;;;;0.00;0.00;;;17.50;99.90;226.50;231333.00;;;;5031040;28;20226;-73
2022/09/07 01:52:21;;;;;;;0.10;0.10;;;17.50;99.90;226.50;231333.00;;;;5027058;28;20203;-73
2022/09/07 01:54:59;;;;;;;0.00;0.00;;;17.50;99.90;226.50;231333.00;;;;5027874;28;20210;-76
2022/09/07 01:57:39;;;;;;;0.00;0.00;;;17.40;99.90;226.50;231333.00;;;;5013740;28;20262;-74
2022/09/07 02:00:18;;;;;;;0.00;0.00;;;17.40;99.90;226.50;231333.00;;;;5047585;28;20265;-73
2022/09/07 02:02:56;;;;;;;0.00;0.00;;;17.40;99.90;226.50;231333.00;;;;5033091;28;20314;-74
2022/09/07 02:05:33;;;;;;;0.03;0.03;;;17.40;99.90;226.50;231333.00;;;;5031011;28;20191;-74
2022/09/07 02:08:15;;;;;;;0.05;0.05;;;17.40;99.90;226.50;231333.00;;;;5032431;28;20199;-74
2022/09/07 02:10:54;;;;;;;0.00;0.00;;;17.30;99.90;226.50;231333.00;;;;5032427;28;20219;-74
2022/09/07 02:13:33;;;;;;;0.00;0.00;;;17.30;99.90;226.50;231333.00;;;;5032741;28;20195;-74
2022/09/07 02:16:11;;;;;;;0.00;0.00;;;17.20;99.90;226.50;231333.00;;;;5031426;28;20227;-74
2022/09/07 02:18:47;;;;;;;0.00;0.00;;;17.30;99.90;226.50;231333.00;;;;5031796;28;20273;-74
2022/09/07 02:21:26;;;;;;;0.00;0.00;;;17.20;99.90;226.50;231333.00;;;;5031697;28;20199;-74
2022/09/07 02:24:03;;;;;;;0.00;0.00;;;17.20;99.90;226.50;231333.00;;;;5029857;28;20218;-74
2022/09/07 02:26:36;;;;;;;0.00;0.00;;;17.20;99.90;226.50;231333.00;;;;5028523;28;20194;-73
2022/09/07 02:29:07;;;;;;;0.00;0.00;;;17.10;99.90;226.50;231333.00;;;;5022907;28;20583;-73
2022/09/07 02:31:39;;;;;;;0.00;0.00;;;17.10;99.90;226.50;231333.00;;;;5032361;28;20202;-73
2022/09/07 02:34:10;;;;;;;0.00;0.00;;;17.10;99.90;226.50;231333.00;;;;5030883;28;20704;-73
2022/09/07 02:36:48;;;;;;;0.00;0.00;;;17.10;99.90;226.50;231333.00;;;;5021236;28;20203;-73
2022/09/07 02:39:19;;;;;;;0.00;0.00;;;17.10;99.90;226.50;231333.00;;;;5016101;28;20583;-73
2022/09/07 02:41:49;;;;;;;0.00;0.00;;;17.10;99.90;226.50;231333.00;;;;5026613;28;20944;-71
2022/09/07 02:44:25;;;;;;;0.00;0.00;;;17.10;99.90;226.50;231333.00;;;;5031528;28;20187;-71
2022/09/07 02:47:18;;;;;;;0.00;0.00;;;17.20;99.90;226.50;231333.00;;;;5032303;28;20203;-70
2022/09/07 02:50:23;;;;;;;0.00;0.00;;;17.00;99.90;226.50;231333.00;;;;5030330;28;20234;-71
2022/09/07 02:53:24;;;;;;;0.00;0.00;;;17.00;99.90;226.50;231333.00;;;;5031066;28;20213;-71
2022/09/07 02:56:11;;;;;;;0.00;0.00;;;17.00;99.90;226.50;231333.00;;;;5012276;28;20214;-71
2022/09/07 02:58:54;;;;;;;0.00;0.00;;;16.90;99.90;226.50;231333.00;;;;5021208;28;20684;-72
2022/09/07 03:01:39;;;;;;;0.00;0.00;;;16.90;99.90;226.50;231333.00;;;;5030554;28;20578;-71
2022/09/07 03:04:23;;;;;;;0.00;0.00;;;16.90;99.90;226.50;231333.00;;;;5031893;28;20222;-70
2022/09/07 03:07:01;;;;;;;0.00;0.00;;;16.90;99.90;226.50;231333.00;;;;5029829;28;20217;-70
2022/09/07 03:09:41;;;;;;;0.00;0.00;;;16.90;99.90;226.50;231333.00;;;;5030897;28;20222;-70
2022/09/07 03:12:13;;;;;;;0.00;0.00;;;16.80;99.90;226.50;231333.00;;;;5031212;28;20206;-71
2022/09/07 03:14:45;;;;;;;0.00;0.00;;;16.80;99.90;226.50;231333.00;;;;5031741;28;20214;-70
2022/09/07 03:17:16;;;;;;;0.00;0.00;;;16.80;99.90;226.50;231333.00;;;;5031293;28;20199;-70
2022/09/07 03:19:48;;;;;;;0.00;0.00;;;16.90;99.90;226.50;231333.00;;;;5026066;28;20217;-70
2022/09/07 03:22:18;;;;;;;0.00;0.00;;;16.90;99.90;226.50;231333.00;;;;5025803;28;20206;-70
2022/09/07 03:24:49;;;;;;;0.00;0.00;;;16.90;99.90;226.50;231333.00;;;;5019881;28;20210;-70
2022/09/07 03:27:19;;;;;;;0.00;0.00;;;16.90;99.90;226.50;231333.00;;;;5018124;28;20662;-69
2022/09/07 03:29:50;;;;;;;0.00;0.00;;;16.90;99.90;226.50;231333.00;;;;5015966;28;20231;-70
2022/09/07 03:32:20;;;;;;;0.00;0.00;;;16.90;99.90;226.50;231333.00;;;;5017264;28;20204;-71
2022/09/07 03:34:53;;;;;;;0.00;0.00;;;16.90;99.90;226.50;231333.00;;;;5033117;28;20204;-70
2022/09/07 03:37:24;;;;;;;0.00;0.00;;;16.90;99.90;226.50;231333.00;;;;5032215;28;20207;-72
2022/09/07 03:39:55;;;;;;;0.00;0.00;;;16.90;99.90;226.50;231333.00;;;;5034290;28;20245;-72
2022/09/07 03:42:26;;;;;;;0.00;0.00;;;16.80;99.90;226.50;231333.00;;;;5030510;28;20248;-71
2022/09/07 03:44:56;;;;;;;0.00;0.00;;;16.80;99.90;226.50;231333.00;;;;5036538;28;20195;-71
2022/09/07 03:47:27;;;;;;;0.00;0.00;;;16.80;99.90;226.50;231333.00;;;;5034153;28;20779;-71
2022/09/07 03:49:59;;;;;;;0.00;0.00;;;16.80;99.90;226.50;231333.00;;;;5033836;28;20580;-70
2022/09/07 03:52:29;;;;;;;0.00;0.00;;;16.80;99.90;226.50;231333.00;;;;5033565;28;20195;-69
2022/09/07 03:55:00;;;;;;;0.00;0.00;;;16.80;99.90;226.50;231333.00;;;;5033351;28;20191;-70
2022/09/07 03:57:30;;;;;;;0.00;0.00;;;16.90;99.90;226.50;231333.00;;;;5033242;28;20658;-70
2022/09/07 04:00:01;;;;;;;0.00;0.00;;;16.90;99.90;226.50;231333.00;;;;5032265;28;20706;-68
2022/09/07 04:02:41;;;;;;;0.00;0.00;;;16.90;99.90;226.50;231333.00;;;;5031348;28;20666;-70
2022/09/07 04:05:13;;;;;;;0.00;0.00;;;16.90;99.90;226.50;231333.00;;;;5029826;28;20659;-69
2022/09/07 04:07:44;;;;;;;0.00;0.00;;;16.90;99.90;226.50;231333.00;;;;5029397;28;20202;-70
2022/09/07 04:10:14;;;;;;;0.00;0.00;;;16.90;99.90;226.50;231333.00;;;;5030601;28;20765;-70
2022/09/07 04:12:45;;;;;;;0.00;0.00;;;17.00;99.90;226.50;231333.00;;;;5030430;28;20210;-70
2022/09/07 04:15:15;;;;;;;0.00;0.00;;;17.00;99.90;226.50;231333.00;;;;5029791;28;20203;-70
2022/09/07 04:17:46;;;;;;;0.00;0.00;;;17.00;99.90;226.50;231333.00;;;;5030425;28;20202;-71
2022/09/07 04:20:18;;;;;;;0.00;0.00;;;16.90;99.90;226.50;231333.00;;;;5033154;28;20211;-70
2022/09/07 04:22:50;;;;;;;0.00;0.00;;;16.90;99.90;226.50;231333.00;;;;5034926;28;20195;-70
2022/09/07 04:25:23;;;;;;;0.00;0.00;;;16.90;99.90;226.50;231333.00;;;;5033998;28;20198;-70
2022/09/07 04:27:55;;;;;;;0.00;0.00;;;16.90;99.90;226.50;231333.00;;;;5032959;28;20206;-71
2022/09/07 04:30:25;;;;;;;0.00;0.00;;;16.90;99.90;226.50;231333.00;;;;5034126;28;20226;-71
2022/09/07 04:32:56;;;;;;;0.00;0.00;;;16.90;99.90;226.50;231333.00;;;;5026137;28;20207;-70
2022/09/07 04:35:27;;;;;;;0.00;0.00;;;16.90;99.90;226.50;231333.00;;;;5030079;28;20194;-72
2022/09/07 04:37:58;;;;;;;0.00;0.00;;;16.90;99.90;226.50;231333.00;;;;5033575;28;20195;-71
2022/09/07 04:40:28;;;;;;;0.10;0.10;;;16.90;99.90;226.50;231333.00;;;;5024920;28;20222;-71
2022/09/07 04:42:59;;;;;;;0.00;0.00;;;16.90;99.90;226.50;231333.00;;;;5033390;28;20560;-71
2022/09/07 04:45:30;;;;;;;0.00;0.00;;;16.90;99.90;226.50;231333.00;;;;5034282;28;20273;-70
2022/09/07 04:48:00;;;;;;;0.00;0.00;;;16.90;99.90;226.50;231333.00;;;;5032028;28;20195;-72
2022/09/07 04:50:32;;;;;;;0.00;0.00;;;17.00;99.90;226.50;231333.00;;;;5030574;28;20245;-72
2022/09/07 04:53:03;;;;;;;0.00;0.00;;;17.00;99.90;226.50;231333.00;;;;5034107;28;20191;-72
2022/09/07 04:55:34;;;;;;;0.00;0.00;;;17.00;99.90;226.50;231333.00;;;;5030631;28;20195;-72
2022/09/07 04:58:04;;;;;;;0.00;0.00;;;17.10;99.90;226.50;231333.00;;;;5024333;28;20203;-71
2022/09/07 05:00:35;;;;;;;0.00;0.00;;;17.10;99.90;226.50;231333.00;;;;5023631;28;20218;-71
2022/09/07 05:03:05;;;;;;;0.00;0.00;;;17.10;99.90;226.50;231333.00;;;;5015165;28;20210;-72
2022/09/07 05:05:39;;;;;;;0.00;0.00;;;17.20;99.90;226.50;231333.00;;;;5031342;28;20198;-71
2022/09/07 05:08:10;;;;;;;0.00;0.00;;;17.20;99.90;226.50;231333.00;;;;5032846;28;20199;-71
2022/09/07 05:10:49;;;;;;;0.00;0.00;;;17.20;99.90;226.50;231333.00;;;;5031824;28;20711;-71
2022/09/07 05:13:20;;;;;;;0.00;0.00;;;17.20;99.90;226.50;231333.00;;;;5033914;28;20195;-72
2022/09/07 05:15:50;;;;;;;0.00;0.00;;;17.20;99.90;226.50;231333.00;;;;5033178;28;20206;-72
2022/09/07 05:18:21;;;;;;;0.00;0.00;;;17.20;99.90;226.50;231333.00;;;;5033572;28;20573;-71
2022/09/07 05:20:53;;;;;;;0.00;0.00;;;17.20;99.90;226.50;231333.00;;;;5033578;28;20588;-71
2022/09/07 05:23:23;;;;;;;0.00;0.00;;;17.20;99.90;226.50;231333.00;;;;5033207;28;20208;-72
2022/09/07 05:25:54;;;;;;;0.00;0.00;;;17.20;99.90;226.50;231333.00;;;;5022901;28;20203;-73
2022/09/07 05:28:24;;;;;;;0.00;0.00;;;17.20;99.90;226.50;231333.00;;;;5018192;28;20207;-72
2022/09/07 05:30:55;;;;;;;0.00;0.00;;;17.20;99.90;226.50;231333.00;;;;5027338;28;20575;-71
2022/09/07 05:33:48;;;;;;;0.00;0.00;;;17.30;99.90;226.50;231333.00;;;;5027197;28;20203;-73
2022/09/07 05:36:41;;;;;;;0.00;0.00;;;17.20;99.90;226.50;231333.00;;;;5031987;28;20195;-75
2022/09/07 05:39:11;;;;;;;0.00;0.00;;;17.20;99.90;226.50;231333.00;;;;5033129;28;20211;-73
2022/09/07 05:41:42;;;;;;;0.00;0.00;;;17.30;99.90;226.50;231333.00;;;;5033833;28;20199;-74
2022/09/07 05:44:13;;;;;;;0.00;0.00;;;17.30;99.90;226.50;231333.00;;;;5024460;28;20219;-74
2022/09/07 05:47:03;;;;;;;0.00;0.00;;;17.30;99.90;226.50;231333.00;;;;5033050;28;20256;-73
2022/09/07 05:49:33;;;;;;;0.00;0.00;;;17.40;99.90;226.50;231333.00;;;;5032661;28;20234;-73
2022/09/07 05:52:06;;;;;;;0.00;0.00;;;17.50;99.90;226.50;231333.00;;;;5029313;28;20199;-73
2022/09/07 05:54:37;;;;;;;0.00;0.00;;;17.50;99.90;226.50;231333.00;;;;5029146;28;20211;-73
2022/09/07 05:57:10;;;;;;;0.00;0.00;;;17.60;99.90;226.50;231333.00;;;;5033780;28;20195;-74
2022/09/07 05:59:40;;;;;;;0.00;0.00;;;17.70;99.90;226.50;231333.00;;;;5039083;23;20250;-74
2022/09/07 06:02:15;;;;;;;0.00;0.00;;;17.70;99.90;226.50;231333.00;;;;4997171;28;20205;-76
2022/09/07 06:04:46;;;;;;;0.00;0.00;;;17.80;99.90;226.50;231333.00;;;;4993381;28;20227;-75
2022/09/07 06:07:18;;;;;;;0.00;0.00;;;17.90;99.90;226.50;231333.00;;;;4993597;28;20671;-75
2022/09/07 06:09:52;;;;;;;0.00;0.00;;;17.90;99.90;226.50;231333.00;;;;4993543;28;20216;-74
2022/09/07 06:12:47;;;;;;;0.00;0.00;;;17.90;99.90;226.50;231333.00;;;;4993395;28;20204;-74
2022/09/07 06:15:19;;;;;;;0.00;0.00;;;18.00;99.90;226.50;231333.00;;;;4992165;28;20196;-74
2022/09/07 06:17:49;;;;;;;0.00;0.00;;;18.00;99.90;226.50;231333.00;;;;4993327;28;20200;-74
2022/09/07 06:20:20;;;;;;;0.00;0.00;;;18.00;99.90;226.50;231333.00;;;;4993331;28;20208;-74
2022/09/07 06:22:51;;;;;;;0.10;0.10;;;18.00;99.90;226.50;231333.00;;;;4993252;28;20337;-75
2022/09/07 06:25:22;;;;;;;0.00;0.00;;;18.00;99.90;226.50;231333.00;;;;4993330;28;20224;-74
2022/09/07 06:27:53;;;;;;;0.00;0.00;;;18.10;99.90;226.50;231333.00;;;;4993054;28;20185;-74
2022/09/07 06:30:24;;;;;;;0.00;0.00;;;18.10;99.90;226.50;231333.00;;;;4993341;28;20189;-75
2022/09/07 06:32:54;;;;;;;0.00;0.00;;;18.10;99.90;226.50;231333.00;;;;4993899;28;20199;-74
2022/09/07 06:35:24;;;;;;;0.00;0.00;;;18.20;99.90;226.50;231333.00;;;;4993020;28;20664;-74
2022/09/07 06:37:56;;;;;;;0.00;0.00;;;18.30;99.90;226.50;231333.00;;;;4992700;28;20196;-74
2022/09/07 06:40:27;;;;;;;0.00;0.00;;;18.40;99.90;226.50;231333.00;;;;4996685;28;20193;-75
2022/09/07 06:42:57;;;;;;;0.00;0.00;;;18.60;99.90;226.50;231333.00;;;;5006603;28;20682;-74
2022/09/07 06:45:28;;;;;;;0.00;0.00;;;18.70;99.90;226.50;231333.00;;;;5006479;28;20235;-74
2022/09/07 06:47:58;;;;;;;0.00;0.00;;;18.90;99.90;226.50;231333.00;;;;4993376;28;20212;-74
2022/09/07 06:50:28;;;;;;;0.00;0.00;;;19.10;99.90;226.50;231333.00;;;;5009916;28;20203;-75
2022/09/07 06:53:00;;;;;;;0.00;0.00;;;19.20;99.90;226.50;231333.00;;;;5012277;28;20188;-75
2022/09/07 06:55:50;;;;;;;0.00;0.00;;;19.30;99.90;226.50;231333.00;;;;5011733;28;20211;-76
2022/09/07 06:58:23;;;;;;;0.00;0.00;;;19.30;99.90;226.50;231333.00;;;;5006116;28;20235;-75
2022/09/07 07:00:55;;;;;;;0.00;0.00;;;19.50;99.90;226.50;231333.00;;;;5005492;28;20196;-74
2022/09/07 07:03:25;;;;;;;0.00;0.00;;;19.50;99.90;226.50;231333.00;;;;4992759;28;20560;-74
2022/09/07 07:05:57;;;;;;;0.00;0.00;;;19.60;99.90;226.50;231333.00;;;;5004983;28;20227;-74
2022/09/07 07:08:28;;;;;;;0.00;0.00;;;19.70;99.90;226.50;231333.00;;;;5012045;28;20212;-74
2022/09/07 07:11:04;;;;;;;0.00;0.00;;;19.70;99.90;226.50;231333.00;;;;5012066;28;20212;-75
2022/09/07 07:13:34;;;;;;;0.00;0.00;;;19.80;99.90;226.50;231333.00;;;;5011950;28;20634;-74
2022/09/07 07:16:05;;;;;;;0.00;0.00;;;19.80;99.90;226.50;231333.00;;;;5012237;28;20256;-74
2022/09/07 07:18:36;;;;;;;0.00;0.00;;;19.80;99.90;226.50;231333.00;;;;5011669;28;20226;-75
2022/09/07 07:21:08;;;;;;;0.00;0.00;;;19.80;99.90;226.50;231333.00;;;;5011577;28;20195;-74
2022/09/07 07:23:40;;;;;;;0.00;0.00;;;19.70;99.90;226.50;231333.00;;;;5012115;28;20562;-75
2022/09/07 07:26:17;;;;;;;0.00;0.00;;;19.70;99.90;226.50;231333.00;;;;5010641;28;20745;-74
2022/09/07 07:28:48;;;;;;;0.00;0.00;;;19.70;99.90;226.50;231333.00;;;;5011797;28;20231;-74
2022/09/07 07:31:33;;;;;;;0.00;0.00;;;19.80;99.90;226.50;231333.00;;;;5011668;28;20238;-76
2022/09/07 07:34:03;;;;;;;0.00;0.00;;;19.80;99.90;226.50;231333.00;;;;5012427;28;20188;-76
2022/09/07 07:36:34;;;;;;;0.00;0.00;;;19.80;99.90;226.50;231333.00;;;;5012284;28;20200;-76
2022/09/07 07:39:06;;;;;;;0.00;0.00;;;19.90;99.90;226.50;231333.00;;;;5012603;28;20650;-74
2022/09/07 07:41:36;;;;;;;0.00;0.00;;;19.90;99.90;226.50;231333.00;;;;5011822;28;20183;-74
2022/09/07 07:44:25;;;;;;;0.00;0.00;;;19.90;99.90;226.50;231333.00;;;;5010402;28;20200;-74
2022/09/07 07:46:55;;;;;;;0.00;0.00;;;19.80;99.90;226.50;231333.00;;;;5011956;28;20223;-74
2022/09/07 07:49:26;;;;;;;0.00;0.00;;;19.80;99.90;226.50;231333.00;;;;5014440;28;20574;-74
2022/09/07 07:51:56;;;;;;;0.00;0.00;;;19.80;99.90;226.50;231333.00;;;;5015849;28;20200;-74
2022/09/07 07:54:48;;;;;;;0.00;0.00;;;19.80;99.90;226.50;231333.00;;;;5015537;28;20698;-75
2022/09/07 07:57:18;;;;;;;0.00;0.00;;;19.90;99.90;226.50;231333.00;;;;5016344;28;20561;-75
2022/09/07 07:59:48;;;;;;;0.00;0.00;;;19.90;99.90;226.50;231333.00;;;;5019966;28;20274;-75
2022/09/07 08:02:19;;;;;;;0.00;0.00;;;19.90;99.90;226.50;231333.00;;;;5029078;28;20187;-76
2022/09/07 08:04:49;;;;;;;0.00;0.00;;;20.00;99.90;226.50;231333.00;;;;5031231;28;20195;-74
2022/09/07 08:07:19;;;;;;;0.00;0.00;;;20.20;99.90;226.50;231333.00;;;;5024590;28;20191;-75
2022/09/07 08:09:51;;;;;;;0.00;0.00;;;20.20;99.90;226.50;231333.00;;;;5015224;28;20242;-74
2022/09/07 08:12:21;;;;;;;0.00;0.00;;;20.40;99.90;226.50;231333.00;;;;5015436;28;20203;-75
2022/09/07 08:14:57;;;;;;;0.00;0.00;;;20.50;99.90;226.50;231333.00;;;;5015372;28;20226;-74
2022/09/07 08:17:27;;;;;;;0.00;0.00;;;20.70;99.90;226.50;231333.00;;;;5014988;28;20666;-75
2022/09/07 08:20:00;;;;;;;0.00;0.00;;;20.80;99.90;226.50;231333.00;;;;5030355;28;20227;-74
2022/09/07 08:22:30;;;;;;;0.00;0.00;;;20.90;99.90;226.50;231333.00;;;;5015235;28;20729;-74
2022/09/07 08:25:05;;;;;;;0.00;0.00;;;21.20;99.90;226.50;231333.00;;;;5015084;28;20238;-75
2022/09/07 08:27:36;;;;;;;0.00;0.00;;;21.40;99.90;226.50;231333.00;;;;5014715;28;20606;-75
2022/09/07 08:30:07;;;;;;;0.00;0.00;;;21.50;99.90;226.50;231333.00;;;;5013800;28;20246;-75
2022/09/07 08:32:36;;;;;;;0.00;0.00;;;21.50;99.90;226.50;231333.00;;;;5014704;28;20191;-75
2022/09/07 08:35:07;;;;;;;0.00;0.00;;;21.60;99.90;226.50;231333.00;;;;5014835;28;20597;-74
2022/09/07 08:37:36;;;;;;;0.00;0.00;;;21.70;99.90;226.50;231333.00;;;;5014058;28;20208;-74
2022/09/07 08:40:10;;;;;;;0.00;0.00;;;21.70;99.90;226.50;231333.00;;;;5014827;28;20188;-75
2022/09/07 08:42:59;;;;;;;0.00;0.00;;;21.80;99.90;226.50;231333.00;;;;5014691;28;20270;-75
2022/09/07 08:45:35;;;;;;;0.00;0.00;;;21.70;99.90;226.50;231333.00;;;;5014471;28;20234;-74
2022/09/07 08:48:06;;;;;;;0.00;0.00;;;21.80;99.90;226.50;231333.00;;;;5014370;28;20275;-74
2022/09/07 08:50:47;;;;;;;0.00;0.00;;;21.70;99.90;226.50;231333.00;;;;5014433;28;20196;-75
2022/09/07 08:53:19;;;;;;;0.00;0.00;;;21.70;99.90;226.50;231333.00;;;;5014699;28;20195;-75
2022/09/07 08:55:55;;;;;;;0.00;0.00;;;21.90;99.90;226.50;231333.00;;;;5014486;28;20196;-74
2022/09/07 08:58:34;;;;;;;0.00;0.00;;;21.90;99.90;226.50;231333.00;;;;5014091;28;20219;-75
2022/09/07 09:01:26;;;;;;;0.00;0.00;;;22.00;99.90;226.50;231333.00;;;;5013065;28;20234;-77
2022/09/07 09:04:00;;;;;;;0.00;0.00;;;22.00;99.90;226.50;231333.00;;;;5013386;28;20194;-75
2022/09/07 09:07:08;;;;;;;0.00;0.00;;;22.00;99.90;226.50;231333.00;;;;5014364;28;20231;-74
2022/09/07 09:10:17;;;;;;;0.00;0.00;;;22.00;99.90;226.50;231333.00;;;;5013960;28;20617;-75
2022/09/07 09:13:02;;;;;;;0.00;0.00;;;22.20;99.90;226.50;231333.00;;;;5014062;28;20246;-75
2022/09/07 09:15:52;;;;;;;0.00;0.00;;;22.30;99.90;226.50;231333.00;;;;5014584;28;20250;-75
2022/09/07 09:18:49;;;;;;;0.00;0.00;;;22.40;99.90;226.50;231333.00;;;;5017138;28;20234;-76
2022/09/07 09:21:20;;;;;;;0.00;0.00;;;22.60;99.90;226.50;231333.00;;;;5022588;28;20286;-74
2022/09/07 09:23:59;;;;;;;0.00;0.00;;;22.70;99.90;226.50;231333.00;;;;5008910;28;20212;-74
2022/09/07 09:26:32;;;;;;;0.00;0.00;;;22.80;99.90;226.50;231333.00;;;;5010562;28;20220;-77
2022/09/07 09:29:14;;;;;;;0.00;0.00;;;22.90;99.90;226.50;231333.00;;;;4998272;28;20611;-75
2022/09/07 09:31:43;;;;;;;0.00;0.00;;;22.90;99.90;226.50;231333.00;;;;5001582;28;20616;-74
2022/09/07 09:34:16;;;;;;;0.00;0.00;;;23.00;99.90;226.50;231333.00;;;;5018471;28;20219;-75
2022/09/07 09:36:48;;;;;;;0.00;0.00;;;23.10;99.90;226.50;231333.00;;;;5018002;28;20211;-75
2022/09/07 09:39:30;;;;;;;0.00;0.00;;;23.20;99.90;226.50;231333.00;;;;5020302;28;20223;-74
2022/09/07 09:42:15;;;;;;;0.00;0.00;;;23.40;99.90;226.50;231333.00;;;;5017332;28;20203;-75
2022/09/07 09:44:46;;;;;;;0.00;0.00;;;23.50;99.90;226.50;231333.00;;;;5013754;28;20274;-74
2022/09/07 09:47:32;;;;;;;0.00;0.00;;;23.60;99.90;226.50;231333.00;;;;5012238;28;20231;-74
2022/09/07 09:50:15;;;;;;;0.00;0.00;;;23.80;99.90;226.50;231333.00;;;;5013778;28;20287;-74
2022/09/07 09:53:06;;;;;;;0.00;0.00;;;23.80;99.90;226.50;231333.00;;;;5013661;28;20274;-74
2022/09/07 09:55:38;;;;;;;0.00;0.00;;;24.00;99.90;226.50;231333.00;;;;5013645;28;20615;-75
2022/09/07 09:58:29;;;;;;;0.00;0.00;;;24.10;99.90;226.50;231333.00;;;;5002948;28;20251;-75
2022/09/07 10:01:31;;;;;;;0.00;0.00;;;24.20;99.90;226.50;231333.00;;;;5004049;28;20294;-75
2022/09/07 10:04:26;;;;;;;0.00;0.00;;;24.40;99.90;226.50;231333.00;;;;5010893;28;20203;-74
2022/09/07 10:07:00;;;;;;;0.00;0.00;;;24.60;99.90;226.50;231333.00;;;;5007288;28;20232;-74
2022/09/07 10:09:35;;;;;;;0.00;0.00;;;24.80;99.90;226.50;231333.00;;;;4992138;28;20216;-74
2022/09/07 10:12:20;;;;;;;0.00;0.00;;;25.00;99.90;226.50;231333.00;;;;4994326;28;20200;-75
2022/09/07 10:14:50;;;;;;;0.00;0.00;;;25.00;99.90;226.50;231333.00;;;;4993496;28;20243;-77
2022/09/07 10:17:29;;;;;;;0.00;0.00;;;25.10;99.90;226.50;231333.00;;;;4992932;28;20203;-78
2022/09/07 10:20:02;;;;;;;0.00;0.00;;;25.40;99.90;226.50;231333.00;;;;4993304;28;20299;-74
2022/09/07 10:22:35;;;;;;;0.00;0.00;;;25.50;99.90;226.50;231333.00;;;;4993563;28;20192;-75
2022/09/07 10:25:31;;;;;;;0.00;0.00;;;25.70;99.90;226.50;231333.00;;;;4994623;28;20663;-75
2022/09/07 10:28:17;;;;;;;0.00;0.00;;;25.90;99.90;226.50;231333.00;;;;5012958;28;20232;-76
2022/09/07 10:31:12;;;;;;;0.00;0.00;;;25.90;99.90;226.50;231333.00;;;;5010926;28;20244;-75
2022/09/07 10:33:56;;;;;;;0.00;0.00;;;26.20;99.90;226.50;231333.00;;;;5012613;28;20176;-75
2022/09/07 10:36:54;;;;;;;0.00;0.00;;;26.30;99.90;226.50;231333.00;;;;5012507;28;20246;-74
2022/09/07 10:39:31;;;;;;;0.00;0.00;;;26.60;99.90;226.50;231333.00;;;;4993678;28;20271;-75
2022/09/07 10:42:24;;;;;;;0.00;0.00;;;26.60;99.90;226.50;231333.00;;;;5000687;28;20196;-74
2022/09/07 10:45:14;;;;;;;0.00;0.00;;;26.60;99.90;226.50;231333.00;;;;5007687;28;20682;-74
2022/09/07 10:47:59;;;;;;;0.00;0.00;;;26.50;99.90;226.50;231333.00;;;;5017510;28;20236;-74
2022/09/07 10:50:36;;;;;;;0.00;0.00;;;26.40;99.90;226.50;231333.00;;;;4994658;28;20212;-75
2022/09/07 10:53:40;;;;;;;0.00;0.00;;;26.20;99.90;226.50;231333.00;;;;4992807;28;20235;-74
2022/09/07 10:56:15;;;;;;;0.00;0.00;;;25.90;99.90;226.50;231333.00;;;;4993064;28;20196;-74
2022/09/07 10:59:05;;;;;;;0.00;0.00;;;25.60;99.90;226.50;231333.00;;;;4992175;28;20573;-75
2022/09/07 11:01:53;;;;;;;0.00;0.00;;;25.60;99.90;226.50;231333.00;;;;4998341;28;20203;-74
2022/09/07 11:04:45;;;;;;;0.00;0.00;;;25.50;99.90;226.50;231333.00;;;;5031890;28;20622;-75
2022/09/07 11:07:40;;;;;;;0.00;0.00;;;25.50;99.90;226.50;231333.00;;;;5013682;28;20269;-75
2022/09/07 11:10:25;;;;;;;0.00;0.00;;;25.60;99.90;226.50;231333.00;;;;5011934;28;20227;-76
2022/09/07 11:13:01;;;;;;;0.00;0.00;;;25.70;99.90;226.50;231333.00;;;;5010799;28;20640;-75
2022/09/07 11:15:39;;;;;;;0.00;0.00;;;25.80;99.90;226.50;231333.00;;;;5012089;28;20227;-75
2022/09/07 11:18:17;;;;;;;0.00;0.00;;;25.90;99.90;226.50;231333.00;;;;5010274;28;20348;-74
2022/09/07 11:20:54;;;;;;;0.00;0.00;;;25.90;99.90;226.50;231333.00;;;;5026874;28;20290;-74